sensor_id;sensor_type;location;lat;lon;timestamp;temperature;humidity
40589;DHT22;26297;49.450;6.640;2022-08-30T04:00:55;18.80;99.90
40589;DHT22;26297;49.450;6.640;2022-08-30T04:03:58;18.70;99.90
40589;DHT22;26297;49.450;6.640;2022-08-30T04:07:01;18.70;99.90
40589;DHT22;26297;49.450;6.640;2022-08-30T04:10:06;18.70;99.90
40589;DHT22;26297;49.450;6.640;2022-08-30T04:13:09;18.80;99.90
40589;DHT22;26297;49.450;6.640;2022-08-30T04:16:12;18.80;99.90
40589;DHT22;26297;49.450;6.640;2022-08-30T04:19:15;18.80;99.90
40589;DHT22;26297;49.450;6.640;2022-08-30T04:22:19;18.80;99.90
40589;DHT22;26297;49.450;6.640;2022-08-30T04:25:23;18.80;99.90
40589;DHT22;26297;49.450;6.640;2022-08-30T04:28:27;18.80;99.90
40589;DHT22;26297;49.450;6.640;2022-08-30T04:31:30;18.80;99.90
40589;DHT22;26297;49.450;6.640;2022-08-30T04:34:33;18.80;99.90
40589;DHT22;26297;49.450;6.640;2022-08-30T04:37:37;18.80;99.90
40589;DHT22;26297;49.450;6.640;2022-08-30T04:40:44;18.70;99.90
40589;DHT22;26297;49.450;6.640;2022-08-30T04:43:50;18.70;99.90
40589;DHT22;26297;49.450;6.640;2022-08-30T04:46:53;18.70;99.90
40589;DHT22;26297;49.450;6.640;2022-08-30T04:49:57;18.70;99.90
40589;DHT22;26297;49.450;6.640;2022-08-30T04:53:00;18.70;99.90
40589;DHT22;26297;49.450;6.640;2022-08-30T04:56:15;18.70;99.90
40589;DHT22;26297;49.450;6.640;2022-08-30T04:59:19;18.60;99.90
40589;DHT22;26297;49.450;6.640;2022-08-30T05:02:23;18.60;99.90
40589;DHT22;26297;49.450;6.640;2022-08-30T05:05:26;17.20;99.90
40589;DHT22;26297;49.450;6.640;2022-08-30T05:08:42;18.60;99.90
40589;DHT22;26297;49.450;6.640;2022-08-30T05:11:45;18.50;99.90
40589;DHT22;26297;49.450;6.640;2022-08-30T05:14:49;18.60;99.90
40589;DHT22;26297;49.450;6.640;2022-08-30T05:17:53;18.50;99.90
40589;DHT22;26297;49.450;6.640;2022-08-30T05:21:10;18.70;99.90
40589;DHT22;26297;49.450;6.640;2022-08-30T05:24:13;18.60;99.90
40589;DHT22;26297;49.450;6.640;2022-08-30T05:27:17;18.60;99.90
40589;DHT22;26297;49.450;6.640;2022-08-30T05:30:21;18.60;99.90
40589;DHT22;26297;49.450;6.640;2022-08-30T05:33:24;18.70;99.90
40589;DHT22;26297;49.450;6.640;2022-08-30T05:36:33;18.70;99.90
40589;DHT22;26297;49.450;6.640;2022-08-30T05:39:40;18.80;99.90
40589;DHT22;26297;49.450;6.640;2022-08-30T05:42:44;18.80;99.90
40589;DHT22;26297;49.450;6.640;2022-08-30T05:45:56;18.80;99.90
40589;DHT22;26297;49.450;6.640;2022-08-30T05:49:02;18.80;99.90
40589;DHT22;26297;49.450;6.640;2022-08-30T05:52:06;18.90;99.90
40589;DHT22;26297;49.450;6.640;2022-08-30T05:55:09;18.80;99.90
40589;DHT22;26297;49.450;6.640;2022-08-30T05:58:13;18.90;99.90
40589;DHT22;26297;49.450;6.640;2022-08-30T06:01:31;19.00;99.90
40589;DHT22;26297;49.450;6.640;2022-08-30T06:04:35;19.00;99.90
40589;DHT22;26297;49.450;6.640;2022-08-30T06:07:42;19.00;99.90
40589;DHT22;26297;49.450;6.640;2022-08-30T06:10:46;19.00;99.90
40589;DHT22;26297;49.450;6.640;2022-08-30T06:13:50;19.10;99.90
40589;DHT22;26297;49.450;6.640;2022-08-30T06:16:54;19.10;99.90
40589;DHT22;26297;49.450;6.640;2022-08-30T06:19:57;19.10;99.90
40589;DHT22;26297;49.450;6.640;2022-08-30T06:23:06;19.10;99.90
40589;DHT22;26297;49.450;6.640;2022-08-30T06:26:20;19.20;99.90
40589;DHT22;26297;49.450;6.640;2022-08-30T06:29:26;19.20;99.90
40589;DHT22;26297;49.450;6.640;2022-08-30T06:32:29;19.20;99.90
40589;DHT22;26297;49.450;6.640;2022-08-30T06:35:38;19.30;99.90
40589;DHT22;26297;49.450;6.640;2022-08-30T06:38:42;19.40;99.90
40589;DHT22;26297;49.450;6.640;2022-08-30T06:41:50;19.30;99.90
40589;DHT22;26297;49.450;6.640;2022-08-30T06:44:54;19.50;99.90
40589;DHT22;26297;49.450;6.640;2022-08-30T06:48:00;19.50;99.90
40589;DHT22;26297;49.450;6.640;2022-08-30T06:51:07;19.60;99.90
40589;DHT22;26297;49.450;6.640;2022-08-30T06:54:11;19.60;99.90
40589;DHT22;26297;49.450;6.640;2022-08-30T06:57:19;19.60;99.90
40589;DHT22;26297;49.450;6.640;2022-08-30T07:00:36;19.60;99.90
40589;DHT22;26297;49.450;6.640;2022-08-30T07:04:13;19.60;99.90
40589;DHT22;26297;49.450;6.640;2022-08-30T07:07:16;19.60;99.90
40589;DHT22;26297;49.450;6.640;2022-08-30T07:10:27;19.60;99.90
40589;DHT22;26297;49.450;6.640;2022-08-30T07:13:37;19.70;99.90
40589;DHT22;26297;49.450;6.640;2022-08-30T07:16:44;19.70;99.90
40589;DHT22;26297;49.450;6.640;2022-08-30T07:19:54;19.80;99.90
40589;DHT22;26297;49.450;6.640;2022-08-30T07:23:03;20.00;99.90
40589;DHT22;26297;49.450;6.640;2022-08-30T07:26:09;20.00;99.90
40589;DHT22;26297;49.450;6.640;2022-08-30T07:29:19;20.10;99.90
40589;DHT22;26297;49.450;6.640;2022-08-30T07:32:24;20.10;99.90
40589;DHT22;26297;49.450;6.640;2022-08-30T07:35:27;20.20;99.90
40589;DHT22;26297;49.450;6.640;2022-08-30T07:38:36;20.20;99.90
40589;DHT22;26297;49.450;6.640;2022-08-30T07:41:51;20.30;99.90
40589;DHT22;26297;49.450;6.640;2022-08-30T07:45:13;20.30;99.90
40589;DHT22;26297;49.450;6.640;2022-08-30T07:48:16;20.40;99.90
40589;DHT22;26297;49.450;6.640;2022-08-30T07:51:24;20.40;99.90
40589;DHT22;26297;49.450;6.640;2022-08-30T07:54:44;20.50;99.90
40589;DHT22;26297;49.450;6.640;2022-08-30T07:57:49;20.50;99.90
40589;DHT22;26297;49.450;6.640;2022-08-30T08:00:52;20.60;99.90
40589;DHT22;26297;49.450;6.640;2022-08-30T08:04:36;20.60;99.90
40589;DHT22;26297;49.450;6.640;2022-08-30T08:08:20;20.70;99.90
40589;DHT22;26297;49.450;6.640;2022-08-30T08:11:35;20.70;99.90
40589;DHT22;26297;49.450;6.640;2022-08-30T08:14:49;20.80;99.90
40589;DHT22;26297;49.450;6.640;2022-08-30T08:17:58;20.90;99.90
40589;DHT22;26297;49.450;6.640;2022-08-30T08:21:04;20.00;99.90
40589;DHT22;26297;49.450;6.640;2022-08-30T08:24:28;21.00;99.90
40589;DHT22;26297;49.450;6.640;2022-08-30T08:27:31;21.30;99.90
40589;DHT22;26297;49.450;6.640;2022-08-30T08:30:36;21.00;99.90
40589;DHT22;26297;49.450;6.640;2022-08-30T08:33:47;21.00;99.90
40589;DHT22;26297;49.450;6.640;2022-08-30T08:36:50;21.00;99.60
40589;DHT22;26297;49.450;6.640;2022-08-30T08:39:59;21.00;99.20
40589;DHT22;26297;49.450;6.640;2022-08-30T08:50:11;21.10;97.10
40589;DHT22;26297;49.450;6.640;2022-08-30T08:53:25;21.10;98.20
40589;DHT22;26297;49.450;6.640;2022-08-30T08:57:37;21.10;97.00
40589;DHT22;26297;49.450;6.640;2022-08-30T09:01:25;21.10;99.00
40589;DHT22;26297;49.450;6.640;2022-08-30T09:08:19;21.10;98.00
40589;DHT22;26297;49.450;6.640;2022-08-30T09:11:31;21.10;98.30
40589;DHT22;26297;49.450;6.640;2022-08-30T09:14:42;21.10;98.30
40589;DHT22;26297;49.450;6.640;2022-08-30T09:21:54;21.40;97.80
40589;DHT22;26297;49.450;6.640;2022-08-30T09:25:32;21.30;98.50
40589;DHT22;26297;49.450;6.640;2022-08-30T09:28:50;21.30;98.10
40589;DHT22;26297;49.450;6.640;2022-08-30T09:32:03;21.30;98.10
40589;DHT22;26297;49.450;6.640;2022-08-30T09:35:10;21.30;98.90
40589;DHT22;26297;49.450;6.640;2022-08-30T09:38:21;21.30;97.50
40589;DHT22;26297;49.450;6.640;2022-08-30T09:41:48;21.30;97.00
40589;DHT22;26297;49.450;6.640;2022-08-30T09:45:17;21.10;99.10
40589;DHT22;26297;49.450;6.640;2022-08-30T09:48:56;21.30;98.10
40589;DHT22;26297;49.450;6.640;2022-08-30T09:59:01;21.40;98.60
40589;DHT22;26297;49.450;6.640;2022-08-30T10:15:46;21.50;98.80
40589;DHT22;26297;49.450;6.640;2022-08-30T10:19:02;21.50;99.90
40589;DHT22;26297;49.450;6.640;2022-08-30T10:22:16;21.50;99.30
40589;DHT22;26297;49.450;6.640;2022-08-30T10:25:34;21.50;99.90
40589;DHT22;26297;49.450;6.640;2022-08-30T10:28:55;21.60;99.90
40589;DHT22;26297;49.450;6.640;2022-08-30T10:36:07;21.40;99.90
40589;DHT22;26297;49.450;6.640;2022-08-30T10:39:44;21.40;99.90
40589;DHT22;26297;49.450;6.640;2022-08-30T10:42:53;21.50;99.90
40589;DHT22;26297;49.450;6.640;2022-08-30T10:46:11;21.50;99.90
40589;DHT22;26297;49.450;6.640;2022-08-30T10:50:09;21.60;99.90
40589;DHT22;26297;49.450;6.640;2022-08-30T10:54:07;21.70;99.20
40589;DHT22;26297;49.450;6.640;2022-08-30T10:57:33;21.60;99.20
40589;DHT22;26297;49.450;6.640;2022-08-30T11:09:16;21.70;97.30
40589;DHT22;26297;49.450;6.640;2022-08-30T11:16:04;21.70;96.00
40589;DHT22;26297;49.450;6.640;2022-08-30T11:19:23;21.70;98.90
40589;DHT22;26297;49.450;6.640;2022-08-30T11:22:32;21.70;97.50
40589;DHT22;26297;49.450;6.640;2022-08-30T11:25:56;21.70;97.50
40589;DHT22;26297;49.450;6.640;2022-08-30T11:29:04;21.70;97.30
40589;DHT22;26297;49.450;6.640;2022-08-30T11:41:46;21.80;95.40
40589;DHT22;26297;49.450;6.640;2022-08-30T11:48:42;21.80;97.70
40589;DHT22;26297;49.450;6.640;2022-08-30T11:51:58;21.80;97.30
40589;DHT22;26297;49.450;6.640;2022-08-30T11:59:04;22.00;96.00
40589;DHT22;26297;49.450;6.640;2022-08-30T12:05:52;21.90;94.70
40589;DHT22;26297;49.450;6.640;2022-08-30T12:27:30;21.70;98.40
40589;DHT22;26297;49.450;6.640;2022-08-30T12:30:38;21.80;98.30
40589;DHT22;26297;49.450;6.640;2022-08-30T12:34:21;21.60;98.30
40589;DHT22;26297;49.450;6.640;2022-08-30T12:37:53;21.60;98.00
40589;DHT22;26297;49.450;6.640;2022-08-30T12:41:00;21.60;99.20
40589;DHT22;26297;49.450;6.640;2022-08-30T12:44:28;21.50;98.70
40589;DHT22;26297;49.450;6.640;2022-08-30T12:51:40;21.50;99.00
40589;DHT22;26297;49.450;6.640;2022-08-30T12:54:50;21.50;99.90
40589;DHT22;26297;49.450;6.640;2022-08-30T12:58:08;21.50;99.40
40589;DHT22;26297;49.450;6.640;2022-08-30T13:01:34;21.50;99.50
40589;DHT22;26297;49.450;6.640;2022-08-30T13:04:39;21.50;99.10
40589;DHT22;26297;49.450;6.640;2022-08-30T13:07:43;21.40;99.50
40589;DHT22;26297;49.450;6.640;2022-08-30T13:11:51;21.40;99.30
40589;DHT22;26297;49.450;6.640;2022-08-30T13:19:15;20.90;99.30
40589;DHT22;26297;49.450;6.640;2022-08-30T13:30:41;21.40;99.90
40589;DHT22;26297;49.450;6.640;2022-08-30T13:34:07;20.60;99.90
40589;DHT22;26297;49.450;6.640;2022-08-30T13:37:16;21.30;99.90
40589;DHT22;26297;49.450;6.640;2022-08-30T13:41:21;21.40;99.90
40589;DHT22;26297;49.450;6.640;2022-08-30T13:48:52;21.30;99.90
40589;DHT22;26297;49.450;6.640;2022-08-30T13:52:20;21.50;99.90
40589;DHT22;26297;49.450;6.640;2022-08-30T13:55:28;21.50;99.70
40589;DHT22;26297;49.450;6.640;2022-08-30T14:02:09;21.40;99.90
40589;DHT22;26297;49.450;6.640;2022-08-30T14:05:24;20.90;99.90
40589;DHT22;26297;49.450;6.640;2022-08-30T14:09:06;21.70;99.90
40589;DHT22;26297;49.450;6.640;2022-08-30T14:16:26;21.50;99.90
40589;DHT22;26297;49.450;6.640;2022-08-30T14:19:46;21.40;99.90
40589;DHT22;26297;49.450;6.640;2022-08-30T14:23:21;21.60;99.90
40589;DHT22;26297;49.450;6.640;2022-08-30T14:26:45;21.70;99.90
40589;DHT22;26297;49.450;6.640;2022-08-30T14:29:51;21.90;99.90
40589;DHT22;26297;49.450;6.640;2022-08-30T14:32:53;21.90;99.90
40589;DHT22;26297;49.450;6.640;2022-08-30T14:48:26;22.10;99.90
40589;DHT22;26297;49.450;6.640;2022-08-30T14:51:29;22.10;97.10
40589;DHT22;26297;49.450;6.640;2022-08-30T14:54:35;22.10;99.90
40589;DHT22;26297;49.450;6.640;2022-08-30T14:57:38;22.20;93.70
40589;DHT22;26297;49.450;6.640;2022-08-30T15:00:48;22.20;96.30
40589;DHT22;26297;49.450;6.640;2022-08-30T15:03:52;22.70;85.60
40589;DHT22;26297;49.450;6.640;2022-08-30T15:06:56;22.70;87.90
40589;DHT22;26297;49.450;6.640;2022-08-30T15:09:59;22.70;94.60
40589;DHT22;26297;49.450;6.640;2022-08-30T15:13:08;22.70;95.00
40589;DHT22;26297;49.450;6.640;2022-08-30T15:16:27;22.20;93.90
40589;DHT22;26297;49.450;6.640;2022-08-30T15:19:31;22.40;93.00
40589;DHT22;26297;49.450;6.640;2022-08-30T15:22:35;22.40;94.50
40589;DHT22;26297;49.450;6.640;2022-08-30T15:25:47;22.30;94.10
40589;DHT22;26297;49.450;6.640;2022-08-30T15:28:51;22.30;92.10
40589;DHT22;26297;49.450;6.640;2022-08-30T15:31:54;22.30;94.70
40589;DHT22;26297;49.450;6.640;2022-08-30T15:35:18;22.20;95.20
40589;DHT22;26297;49.450;6.640;2022-08-30T15:38:21;22.00;96.30
40589;DHT22;26297;49.450;6.640;2022-08-30T16:01:37;22.00;97.50
40589;DHT22;26297;49.450;6.640;2022-08-30T16:04:41;21.90;96.40
40589;DHT22;26297;49.450;6.640;2022-08-30T16:07:44;21.90;96.70
40589;DHT22;26297;49.450;6.640;2022-08-30T16:11:10;21.80;96.90
40589;DHT22;26297;49.450;6.640;2022-08-30T16:14:53;21.80;96.50
40589;DHT22;26297;49.450;6.640;2022-08-30T16:17:56;21.80;99.10
40589;DHT22;26297;49.450;6.640;2022-08-30T16:21:07;21.90;97.00
40589;DHT22;26297;49.450;6.640;2022-08-30T16:24:10;21.80;97.70
40589;DHT22;26297;49.450;6.640;2022-08-30T16:27:14;21.80;96.80
40589;DHT22;26297;49.450;6.640;2022-08-30T16:30:17;21.80;97.00
40589;DHT22;26297;49.450;6.640;2022-08-30T16:33:20;21.80;97.10
40589;DHT22;26297;49.450;6.640;2022-08-30T16:36:24;21.70;97.20
40589;DHT22;26297;49.450;6.640;2022-08-30T16:39:30;21.80;97.50
40589;DHT22;26297;49.450;6.640;2022-08-30T16:42:33;21.70;97.90
40589;DHT22;26297;49.450;6.640;2022-08-30T16:45:39;21.70;98.10
40589;DHT22;26297;49.450;6.640;2022-08-30T16:48:43;21.70;99.60
40589;DHT22;26297;49.450;6.640;2022-08-30T16:51:46;21.70;99.90
40589;DHT22;26297;49.450;6.640;2022-08-30T16:54:50;21.70;99.90
40589;DHT22;26297;49.450;6.640;2022-08-30T16:57:52;21.70;99.90
40589;DHT22;26297;49.450;6.640;2022-08-30T17:00:56;21.60;99.90
40589;DHT22;26297;49.450;6.640;2022-08-30T17:03:59;21.70;99.90
40589;DHT22;26297;49.450;6.640;2022-08-30T17:07:02;21.60;99.90
40589;DHT22;26297;49.450;6.640;2022-08-30T17:10:06;21.60;99.90
40589;DHT22;26297;49.450;6.640;2022-08-30T17:13:15;21.60;99.90
40589;DHT22;26297;49.450;6.640;2022-08-30T17:16:19;21.60;99.90
40589;DHT22;26297;49.450;6.640;2022-08-30T17:19:22;21.60;99.90
40589;DHT22;26297;49.450;6.640;2022-08-30T17:22:25;21.60;99.90
40589;DHT22;26297;49.450;6.640;2022-08-30T17:25:29;21.60;99.90
40589;DHT22;26297;49.450;6.640;2022-08-30T17:28:32;21.60;99.90
40589;DHT22;26297;49.450;6.640;2022-08-30T17:31:36;21.60;99.90
40589;DHT22;26297;49.450;6.640;2022-08-30T17:34:39;21.60;99.90
40589;DHT22;26297;49.450;6.640;2022-08-30T17:37:42;21.60;99.90
40589;DHT22;26297;49.450;6.640;2022-08-30T17:40:45;21.70;99.90
40589;DHT22;26297;49.450;6.640;2022-08-30T17:43:48;21.70;99.90
40589;DHT22;26297;49.450;6.640;2022-08-30T17:46:52;21.60;99.90
40589;DHT22;26297;49.450;6.640;2022-08-30T17:49:55;21.60;99.90
40589;DHT22;26297;49.450;6.640;2022-08-30T17:53:00;21.70;99.90
40589;DHT22;26297;49.450;6.640;2022-08-30T17:56:03;21.70;99.90
40589;DHT22;26297;49.450;6.640;2022-08-30T17:59:08;21.60;99.90
40589;DHT22;26297;49.450;6.640;2022-08-30T18:02:12;21.70;99.90
40589;DHT22;26297;49.450;6.640;2022-08-30T18:05:16;21.70;99.90
40589;DHT22;26297;49.450;6.640;2022-08-30T18:08:19;21.70;99.90
40589;DHT22;26297;49.450;6.640;2022-08-30T18:11:22;21.60;99.90
40589;DHT22;26297;49.450;6.640;2022-08-30T18:14:27;21.60;99.90
40589;DHT22;26297;49.450;6.640;2022-08-30T18:17:30;21.60;99.90
40589;DHT22;26297;49.450;6.640;2022-08-30T18:20:33;21.70;99.90
40589;DHT22;26297;49.450;6.640;2022-08-30T18:23:36;21.60;99.90
40589;DHT22;26297;49.450;6.640;2022-08-30T18:26:40;21.70;99.90
40589;DHT22;26297;49.450;6.640;2022-08-30T18:29:44;21.60;99.90
40589;DHT22;26297;49.450;6.640;2022-08-30T18:32:47;21.60;99.90
40589;DHT22;26297;49.450;6.640;2022-08-30T18:35:51;21.70;99.90
40589;DHT22;26297;49.450;6.640;2022-08-30T18:38:54;21.60;99.90
40589;DHT22;26297;49.450;6.640;2022-08-30T18:41:58;21.70;99.90
40589;DHT22;26297;49.450;6.640;2022-08-30T18:45:07;21.70;99.90
40589;DHT22;26297;49.450;6.640;2022-08-30T18:48:11;21.70;99.90
40589;DHT22;26297;49.450;6.640;2022-08-30T18:51:19;21.80;99.90
40589;DHT22;26297;49.450;6.640;2022-08-30T18:54:23;21.80;99.90
40589;DHT22;26297;49.450;6.640;2022-08-30T18:57:26;21.80;99.90
40589;DHT22;26297;49.450;6.640;2022-08-30T19:00:30;21.80;99.90
40589;DHT22;26297;49.450;6.640;2022-08-30T19:03:34;21.80;99.90
40589;DHT22;26297;49.450;6.640;2022-08-30T19:06:40;21.90;99.90
40589;DHT22;26297;49.450;6.640;2022-08-30T19:09:59;21.80;99.90
40589;DHT22;26297;49.450;6.640;2022-08-30T19:13:03;21.80;99.90
40589;DHT22;26297;49.450;6.640;2022-08-30T19:16:07;21.80;99.90
40589;DHT22;26297;49.450;6.640;2022-08-30T19:19:10;21.80;99.90
40589;DHT22;26297;49.450;6.640;2022-08-30T19:22:14;21.80;99.90
40589;DHT22;26297;49.450;6.640;2022-08-30T19:25:19;21.80;99.90
40589;DHT22;26297;49.450;6.640;2022-08-30T19:28:23;21.80;99.90
40589;DHT22;26297;49.450;6.640;2022-08-30T19:31:26;21.80;99.90
40589;DHT22;26297;49.450;6.640;2022-08-30T19:34:29;21.80;99.90
40589;DHT22;26297;49.450;6.640;2022-08-30T19:37:32;21.80;99.90
40589;DHT22;26297;49.450;6.640;2022-08-30T19:43:40;21.90;99.90
40589;DHT22;26297;49.450;6.640;2022-08-30T19:46:44;21.80;99.90
40589;DHT22;26297;49.450;6.640;2022-08-30T19:49:47;21.80;99.90
40589;DHT22;26297;49.450;6.640;2022-08-30T19:52:51;21.80;99.90
40589;DHT22;26297;49.450;6.640;2022-08-30T19:55:57;21.80;99.90
40589;DHT22;26297;49.450;6.640;2022-08-30T19:59:00;21.80;99.90
40589;DHT22;26297;49.450;6.640;2022-08-30T20:02:04;21.80;99.90
40589;DHT22;26297;49.450;6.640;2022-08-30T20:05:08;21.80;99.90
40589;DHT22;26297;49.450;6.640;2022-08-30T20:08:12;21.80;99.90
40589;DHT22;26297;49.450;6.640;2022-08-30T20:11:17;21.80;99.90
40589;DHT22;26297;49.450;6.640;2022-08-30T20:14:21;21.90;99.90
40589;DHT22;26297;49.450;6.640;2022-08-30T20:17:24;21.90;99.90
40589;DHT22;26297;49.450;6.640;2022-08-30T20:20:29;21.90;99.90
40589;DHT22;26297;49.450;6.640;2022-08-30T20:23:33;21.90;99.90
40589;DHT22;26297;49.450;6.640;2022-08-30T20:26:37;21.90;99.90
40589;DHT22;26297;49.450;6.640;2022-08-30T20:29:41;21.90;99.90
40589;DHT22;26297;49.450;6.640;2022-08-30T20:32:44;21.90;99.90
40589;DHT22;26297;49.450;6.640;2022-08-30T20:35:49;21.90;99.90
40589;DHT22;26297;49.450;6.640;2022-08-30T20:38:53;21.90;99.90
40589;DHT22;26297;49.450;6.640;2022-08-30T20:41:56;21.90;99.90
40589;DHT22;26297;49.450;6.640;2022-08-30T20:45:03;21.90;99.90
40589;DHT22;26297;49.450;6.640;2022-08-30T20:48:06;21.90;99.90
40589;DHT22;26297;49.450;6.640;2022-08-30T20:51:13;21.90;99.90
40589;DHT22;26297;49.450;6.640;2022-08-30T20:54:18;21.90;99.90
40589;DHT22;26297;49.450;6.640;2022-08-30T20:57:20;21.90;99.90
